< Typhoon 201720 2017 Season Typhoon 201722 >
Typhoon 201721 (LAN)
General InformationDetailed Track InformationTrack Information on Google MapsForecast History on Google MapsAccess Analytics MapList of All Images || NewsDisaster Info.WeblogTrackbackTyphoon FrontTwiphoonTyphoon Now!Typhoon ImaginationJMA Disaster Info. XMLResourceGoogle EarthGE AnimationAtom FeedGeoJSON
Detalied Best Track Wind (Time Zone = UTC)
Year Month Day Hour Lat. Long. Wind (kt) Gust (kt) Direc. of Major Storm Axis Radius of Major Storm Axis (nm) Radius of Minor Storm Axis (nm) Direc. of Major Gale Axis Radius of Major Gale Axis (nm) Radius of Minor Gale Axis (nm) Image
2017 10 15 06 8.9 137.4 30 45 - - - - - - Image
2017 10 15 09 9.1 137.0 30 45 - - - - - - Image
2017 10 15 12 9.3 136.8 30 45 - - - - - - Image
2017 10 15 15 9.5 136.5 30 45 - - - - - - Image
2017 10 15 18 9.7 136.2 35 50 - - - symmetric 90 90 Image
2017 10 15 21 10.0 135.8 35 50 - - - symmetric 90 90 Image
2017 10 16 00 10.1 135.3 40 60 - - - symmetric 120 120 Image
2017 10 16 03 10.7 135.7 40 60 - - - symmetric 120 120 Image
2017 10 16 06 10.9 135.5 40 60 - - - symmetric 120 120 Image
2017 10 16 09 10.9 135.1 40 60 - - - symmetric 120 120 Image
2017 10 16 12 10.9 134.8 40 60 - - - symmetric 120 120 Image
2017 10 16 15 10.8 134.6 40 60 - - - symmetric 120 120 Image
2017 10 16 18 10.5 134.2 40 60 - - - symmetric 140 140 Image
2017 10 16 21 10.2 133.7 40 60 - - - symmetric 140 140 Image
2017 10 17 00 10.2 132.9 50 70 - - - symmetric 140 140 Image
2017 10 17 03 10.3 131.8 50 70 - - - E 240 150 Image
2017 10 17 06 10.4 131.7 50 70 - - - E 240 150 Image
2017 10 17 09 10.5 131.7 50 70 - - - E 240 150 Image
2017 10 17 12 10.7 131.8 55 80 symmetric 40 40 S 240 180 Image
2017 10 17 15 10.7 132.5 55 80 symmetric 40 40 S 240 180 Image
2017 10 17 18 10.8 132.5 65 95 symmetric 50 50 S 300 180 Image
2017 10 17 21 10.9 132.4 65 95 symmetric 50 50 S 300 180 Image
2017 10 18 00 11.4 132.5 65 95 symmetric 50 50 S 300 180 Image
2017 10 18 03 12.1 132.5 65 95 symmetric 50 50 S 300 180 Image
2017 10 18 06 13.0 132.3 65 95 symmetric 50 50 S 300 210 Image
2017 10 18 09 13.7 131.9 65 95 symmetric 50 50 S 300 210 Image
2017 10 18 12 14.0 131.3 65 95 symmetric 50 50 S 300 210 Image
2017 10 18 15 14.3 131.0 65 95 symmetric 50 50 S 425 300 Image
2017 10 18 18 14.9 131.0 65 95 symmetric 50 50 S 425 300 Image
2017 10 18 21 15.2 130.6 65 95 symmetric 50 50 S 425 300 Image
2017 10 19 00 15.5 130.4 65 95 symmetric 50 50 S 425 300 Image
2017 10 19 03 15.8 130.2 65 95 symmetric 50 50 S 425 300 Image
2017 10 19 06 16.3 130.1 70 100 SE 120 90 S 425 300 Image
2017 10 19 09 16.7 130.1 70 100 SE 120 90 S 425 300 Image
2017 10 19 12 16.9 130.0 70 100 SE 120 90 S 425 300 Image
2017 10 19 15 17.5 130.0 70 100 SE 120 90 S 425 300 Image
2017 10 19 18 17.9 130.0 70 100 SE 120 90 S 425 300 Image
2017 10 19 21 18.3 130.0 70 100 SE 120 90 S 425 300 Image
2017 10 20 00 18.8 130.0 70 100 SE 120 90 S 425 300 Image
2017 10 20 03 19.2 130.0 70 100 SE 120 90 S 500 300 Image
2017 10 20 06 19.7 130.1 80 115 symmetric 120 120 S 500 400 Image
2017 10 20 09 19.9 130.0 80 115 symmetric 120 120 S 500 400 Image
2017 10 20 12 20.0 130.3 80 115 symmetric 120 120 S 500 400 Image
2017 10 20 15 20.3 130.4 85 120 symmetric 150 150 S 500 400 Image
2017 10 20 18 20.7 130.7 95 135 symmetric 150 150 S 500 400 Image
2017 10 20 21 21.0 130.9 95 135 symmetric 150 150 S 500 400 Image
2017 10 21 00 21.3 131.2 95 135 symmetric 150 150 symmetric 500 500 Image
2017 10 21 03 21.7 131.6 95 135 SE 150 120 symmetric 500 500 Image
2017 10 21 06 22.3 132.0 95 135 SE 150 120 symmetric 500 500 Image
2017 10 21 09 23.0 132.3 95 135 SE 150 120 symmetric 500 500 Image
2017 10 21 12 23.8 132.5 95 135 SE 150 120 W 600 500 Image
2017 10 21 15 24.5 132.9 95 135 SE 150 120 W 600 500 Image
2017 10 21 18 25.4 133.3 95 135 symmetric 120 120 W 600 400 Image
2017 10 21 21 26.6 133.6 95 135 symmetric 120 120 W 600 400 Image
2017 10 22 00 27.7 133.8 95 135 SW 150 120 W 650 400 Image
2017 10 22 03 28.7 134.1 90 130 symmetric 150 150 W 700 400 Image
2017 10 22 06 29.8 134.4 85 120 symmetric 150 150 W 700 400 Image
2017 10 22 09 30.7 135.3 85 120 symmetric 150 150 W 700 400 Image
2017 10 22 12 32.1 136.2 85 120 symmetric 150 150 W 700 400 Image
2017 10 22 15 33.4 137.4 75 105 symmetric 150 150 W 700 400 Image
2017 10 22 18 34.7 138.1 75 105 N 210 150 W 700 400 Image
2017 10 22 21 36.1 139.9 60 85 N 210 150 symmetric 600 600 Image
2017 10 23 00 37.5 141.6 60 85 N 210 150 symmetric 600 600 Image
2017 10 23 03 39.3 143.3 60 85 N 210 150 symmetric 600 600 Image
2017 10 23 06 41.0 146.0 55 0 - - - symmetric 600 600 Image
Japan Meteorological Agency Best Track Data | Correction Date : 2017-10-23
< Typhoon 201720 2017 Season Typhoon 201722 >

Help